Blundale, Georgia
Current Conditions -  °F | °C
As of 7:15 PM on Tuesday 25 Nov 2014 (Local Time) from KVDI Reporting Station
Moderate Rain Moderate Rain  
Wind Chill: 52°   Ceiling: 8000
Heat Index: 52°   Visibility: 10mi
Dew Point: 52°   Wind: 5mph
Humidity: 100%   Direction: 330°NNW
Pressure: 30.02"   Gusts: NA
Location:  32.5371°N, 82.3457°W
Report Text: KVDI 260015Z AUTO 33004KT 10SM RA SCT070 BKN080 OVC090 11/11 A3002 RMK AO2
Loading
Personal Weather Stations






























Interactive Weather Map New forecast layout! Learn more

10-Day Weather Forecast

Advertisements
Track Severe Weather on mobile